createdAt,value
2022-09-06T00:00:26.541Z,100865.28
2022-09-06T00:03:29.320Z,100864.41
2022-09-06T00:06:32.324Z,100865.97
2022-09-06T00:09:34.804Z,100847.53
2022-09-06T00:12:37.588Z,100852.62
2022-09-06T00:15:41.234Z,100837.37
2022-09-06T00:18:44.298Z,100859.00
2022-09-06T00:21:46.855Z,100859.38
2022-09-06T00:24:49.514Z,100849.81
2022-09-06T00:28:03.678Z,100861.38
2022-09-06T00:31:13.125Z,100862.53
2022-09-06T00:34:15.568Z,100859.69
2022-09-06T00:37:18.308Z,100854.41
2022-09-06T00:40:20.845Z,100861.19
2022-09-06T00:43:23.633Z,100850.31
2022-09-06T00:46:31.007Z,100855.13
2022-09-06T00:49:39.485Z,100866.72
2022-09-06T00:52:45.052Z,100847.84
2022-09-06T00:55:48.371Z,100862.72
2022-09-06T00:58:50.861Z,100863.50
2022-09-06T01:01:53.791Z,100853.87
2022-09-06T01:04:57.040Z,100844.16
2022-09-06T01:08:05.194Z,100870.63
2022-09-06T01:11:18.800Z,100872.59
2022-09-06T01:14:41.417Z,100859.44
2022-09-06T01:18:12.876Z,100844.13
2022-09-06T01:21:26.931Z,100860.16
2022-09-06T01:24:54.741Z,100867.31
2022-09-06T01:28:13.247Z,100864.09
2022-09-06T01:31:31.140Z,100864.03
2022-09-06T01:34:43.289Z,100869.56
2022-09-06T01:37:46.185Z,100847.09
2022-09-06T01:40:48.481Z,100865.19
2022-09-06T01:43:52.897Z,100839.94
2022-09-06T01:47:08.019Z,100860.03
2022-09-06T01:50:16.590Z,100843.50
2022-09-06T01:53:36.936Z,100867.16
2022-09-06T01:56:45.443Z,100858.78
2022-09-06T02:00:09.514Z,100852.78
2022-09-06T02:03:23.459Z,100848.78
2022-09-06T02:06:33.552Z,100853.53
2022-09-06T02:09:43.684Z,100836.22
2022-09-06T02:12:49.999Z,100841.38
2022-09-06T02:15:56.963Z,100830.53
2022-09-06T02:19:06.597Z,100855.75
2022-09-06T02:22:12.500Z,100850.13
2022-09-06T02:25:26.569Z,100826.34
2022-09-06T02:28:29.115Z,100844.38
2022-09-06T02:31:36.068Z,100845.12
2022-09-06T02:34:43.279Z,100838.31
2022-09-06T02:37:46.196Z,100831.47
2022-09-06T02:40:50.096Z,100827.31
2022-09-06T02:43:52.635Z,100842.56
2022-09-06T02:46:57.103Z,100825.59
2022-09-06T02:49:59.992Z,100842.47
2022-09-06T02:53:12.107Z,100847.19
2022-09-06T02:56:14.963Z,100827.00
2022-09-06T02:59:17.266Z,100845.47
2022-09-06T03:02:20.634Z,100822.09
2022-09-06T03:05:24.217Z,100831.78
2022-09-06T03:08:29.294Z,100838.09
2022-09-06T03:11:31.543Z,100838.47
2022-09-06T03:14:36.088Z,100837.25
2022-09-06T03:17:39.409Z,100818.66
2022-09-06T03:20:41.947Z,100819.47
2022-09-06T03:23:45.846Z,100833.16
2022-09-06T03:26:48.463Z,100829.94
2022-09-06T03:29:50.741Z,100817.75
2022-09-06T03:32:54.077Z,100832.59
2022-09-06T03:35:58.536Z,100839.75
2022-09-06T03:39:01.219Z,100837.69
2022-09-06T03:42:03.611Z,100840.06
2022-09-06T03:45:07.568Z,100834.00
2022-09-06T03:48:09.843Z,100821.91
2022-09-06T03:51:12.422Z,100821.47
2022-09-06T03:54:14.657Z,100840.78
2022-09-06T03:57:17.296Z,100834.38
2022-09-06T04:00:21.827Z,100818.97
2022-09-06T04:03:24.344Z,100849.47
2022-09-06T04:06:26.915Z,100822.94
2022-09-06T04:09:29.535Z,100849.47
2022-09-06T04:12:31.792Z,100841.47
2022-09-06T04:15:34.316Z,100823.78
2022-09-06T04:18:36.734Z,100824.53
2022-09-06T04:21:39.328Z,100835.91
2022-09-06T04:24:41.588Z,100838.31
2022-09-06T04:27:44.151Z,100830.56
2022-09-06T04:30:53.325Z,100828.50
2022-09-06T04:33:55.883Z,100829.38
2022-09-06T04:36:58.474Z,100837.72
2022-09-06T04:40:01.088Z,100855.06
2022-09-06T04:43:03.405Z,100845.38
2022-09-06T04:46:11.250Z,100836.59
2022-09-06T04:49:13.588Z,100850.31
2022-09-06T04:52:16.185Z,100858.25
2022-09-06T04:55:18.431Z,100850.78
2022-09-06T04:58:23.490Z,100838.31
2022-09-06T05:01:27.338Z,100846.47
2022-09-06T05:04:29.849Z,100840.91
2022-09-06T05:07:32.469Z,100834.16
2022-09-06T05:10:35.295Z,100832.25
2022-09-06T05:13:38.398Z,100816.87
2022-09-06T05:16:41.155Z,100842.66
2022-09-06T05:19:43.482Z,100835.06
2022-09-06T05:22:55.321Z,100848.97
2022-09-06T05:25:57.586Z,100833.75
2022-09-06T05:29:04.163Z,100822.91
2022-09-06T05:32:07.064Z,100834.16
2022-09-06T05:35:09.672Z,100836.94
2022-09-06T05:38:11.955Z,100846.72
2022-09-06T05:41:14.502Z,100838.81
2022-09-06T05:44:16.751Z,100853.25
2022-09-06T05:47:19.280Z,100837.19
2022-09-06T05:50:22.036Z,100860.09
2022-09-06T05:53:24.538Z,100846.87
2022-09-06T05:56:28.238Z,100848.66
2022-09-06T05:59:31.003Z,100852.75
2022-09-06T06:02:33.683Z,100859.22
2022-09-06T06:05:36.688Z,100831.94
2022-09-06T06:08:39.785Z,100838.38
2022-09-06T06:11:42.484Z,100856.94
2022-09-06T06:14:44.830Z,100849.03
2022-09-06T06:17:47.432Z,100848.28
2022-09-06T06:20:49.703Z,100858.03
2022-09-06T06:23:58.172Z,100850.97
2022-09-06T06:27:00.404Z,100858.72
2022-09-06T06:30:06.216Z,100852.81
2022-09-06T06:33:08.651Z,100858.59
2022-09-06T06:36:13.966Z,100851.53
2022-09-06T06:39:16.199Z,100854.50
2022-09-06T06:42:18.832Z,100855.81
2022-09-06T06:45:22.216Z,100839.97
2022-09-06T06:48:24.913Z,100843.31
2022-09-06T06:51:30.679Z,100859.94
2022-09-06T06:54:33.261Z,100848.44
2022-09-06T06:57:35.528Z,100866.63
2022-09-06T07:00:38.103Z,100853.56
2022-09-06T07:03:40.682Z,100861.66
2022-09-06T07:13:34.369Z,100860.81
2022-09-06T07:16:36.894Z,100856.47
2022-09-06T07:26:29.875Z,100866.97
2022-09-06T07:29:32.513Z,100863.75
2022-09-06T07:32:35.074Z,100858.16
2022-09-06T07:35:37.285Z,100861.31
2022-09-06T07:38:40.558Z,100856.78
2022-09-06T07:41:43.211Z,100880.25
2022-09-06T07:44:45.836Z,100870.00
2022-09-06T07:48:00.792Z,100877.37
2022-09-06T07:51:16.785Z,100872.53
2022-09-06T07:54:34.323Z,100872.38
2022-09-06T07:57:36.835Z,100877.13
2022-09-06T08:00:41.225Z,100863.44
2022-09-06T08:03:47.410Z,100877.66
2022-09-06T08:10:17.076Z,100876.97
2022-09-06T08:13:21.010Z,100882.81
2022-09-06T08:16:27.967Z,100883.44
2022-09-06T08:19:30.377Z,100852.72
2022-09-06T08:22:33.664Z,100878.25
2022-09-06T08:25:35.872Z,100865.59
2022-09-06T08:28:38.445Z,100867.91
2022-09-06T08:31:43.686Z,100867.50
2022-09-06T08:34:46.658Z,100843.25
2022-09-06T08:37:48.914Z,100841.81
2022-09-06T08:40:53.726Z,100863.87
2022-09-06T08:47:20.743Z,100857.94
2022-09-06T08:50:28.112Z,100846.53
2022-09-06T08:53:30.990Z,100855.62
2022-09-06T08:56:41.548Z,100836.72
2022-09-06T08:59:44.343Z,100853.91
2022-09-06T09:02:52.332Z,100847.66
2022-09-06T09:05:55.161Z,100844.19
2022-09-06T09:09:05.909Z,100858.47
2022-09-06T09:12:12.081Z,100855.28
2022-09-06T09:15:17.620Z,100852.41
2022-09-06T09:18:25.752Z,100853.69
2022-09-06T09:21:31.248Z,100846.13
2022-09-06T09:24:35.443Z,100844.16
2022-09-06T09:27:40.128Z,100823.37
2022-09-06T09:30:53.897Z,100830.06
2022-09-06T09:33:56.249Z,100821.75
2022-09-06T09:40:49.256Z,100815.50
2022-09-06T09:44:03.709Z,100804.84
2022-09-06T09:47:24.250Z,100795.50
2022-09-06T09:50:28.412Z,100805.06
2022-09-06T09:53:30.683Z,100779.44
2022-09-06T09:56:39.311Z,100787.13
2022-09-06T09:59:51.423Z,100793.88
2022-09-06T10:02:54.092Z,100774.00
2022-09-06T10:06:02.575Z,100784.25
2022-09-06T10:09:19.663Z,100774.78
2022-09-06T10:12:31.918Z,100780.19
2022-09-06T10:15:40.053Z,100762.91
2022-09-06T10:18:44.399Z,100780.38
2022-09-06T10:21:46.774Z,100762.37
2022-09-06T10:24:52.495Z,100752.88
2022-09-06T10:28:21.935Z,100757.47
2022-09-06T10:31:39.843Z,100756.88
2022-09-06T10:35:07.817Z,100754.50
2022-09-06T10:38:32.357Z,100750.19
2022-09-06T10:42:10.577Z,100754.94
2022-09-06T10:45:40.509Z,100739.88
2022-09-06T10:48:46.168Z,100738.59
2022-09-06T10:51:59.472Z,100725.47
2022-09-06T10:55:05.382Z,100736.56
2022-09-06T10:58:19.769Z,100734.25
2022-09-06T11:01:49.771Z,100726.34
2022-09-06T11:12:03.728Z,100722.81
2022-09-06T11:15:08.652Z,100727.47
2022-09-06T11:18:32.304Z,100711.69
2022-09-06T11:22:02.756Z,100719.38
2022-09-06T11:25:25.443Z,100715.37
2022-09-06T11:28:56.213Z,100714.47
2022-09-06T11:32:18.118Z,100701.91
2022-09-06T11:35:32.648Z,100687.28
2022-09-06T11:38:36.167Z,100677.78
2022-09-06T11:41:42.594Z,100679.03
2022-09-06T11:45:03.995Z,100694.47
2022-09-06T11:48:26.334Z,100691.03
2022-09-06T11:51:40.273Z,100691.63
2022-09-06T11:54:50.313Z,100692.72
2022-09-06T11:57:59.778Z,100677.75
2022-09-06T12:01:16.451Z,100669.97
2022-09-06T12:04:19.022Z,100680.84
2022-09-06T12:07:21.412Z,100664.81
2022-09-06T12:10:29.994Z,100642.41
2022-09-06T12:13:49.305Z,100666.41
2022-09-06T12:16:58.234Z,100652.75
2022-09-06T12:20:08.763Z,100629.00
2022-09-06T12:23:39.245Z,100650.97
2022-09-06T12:26:55.726Z,100647.41
2022-09-06T12:30:04.426Z,100630.28
2022-09-06T12:33:21.865Z,100632.03
2022-09-06T12:36:30.987Z,100614.69
2022-09-06T12:39:34.513Z,100617.03
2022-09-06T12:42:38.498Z,100590.19
2022-09-06T12:45:45.966Z,100606.59
2022-09-06T12:49:23.510Z,100593.19
2022-09-06T12:52:25.868Z,100605.25
2022-09-06T12:55:38.572Z,100588.41
2022-09-06T12:58:41.248Z,100589.22
2022-09-06T13:01:47.389Z,100586.34
2022-09-06T13:04:53.819Z,100582.87
2022-09-06T13:08:00.408Z,100577.13
2022-09-06T13:11:07.805Z,100568.69
2022-09-06T13:14:14.427Z,100556.75
2022-09-06T13:17:25.597Z,100555.50
2022-09-06T13:20:30.018Z,100547.06
2022-09-06T13:23:49.584Z,100522.34
2022-09-06T13:26:53.327Z,100537.34
2022-09-06T13:29:58.228Z,100528.69
2022-09-06T13:33:02.270Z,100529.88
2022-09-06T13:36:26.957Z,100536.78
2022-09-06T13:39:31.617Z,100534.84
2022-09-06T13:42:39.205Z,100537.00
2022-09-06T13:45:41.723Z,100516.97
2022-09-06T13:48:44.713Z,100528.66
2022-09-06T13:51:47.569Z,100526.75
2022-09-06T13:54:49.840Z,100520.38
2022-09-06T13:57:52.385Z,100522.03
2022-09-06T14:00:55.081Z,100518.28
2022-09-06T14:03:57.719Z,100497.75
2022-09-06T14:07:00.496Z,100507.31
2022-09-06T14:10:03.460Z,100506.78
2022-09-06T14:13:05.729Z,100487.81
2022-09-06T14:16:08.544Z,100494.75
2022-09-06T14:19:11.011Z,100493.69
2022-09-06T14:22:13.794Z,100476.91
2022-09-06T14:25:16.123Z,100481.13
2022-09-06T14:28:18.784Z,100500.03
2022-09-06T14:31:23.681Z,100476.16
2022-09-06T14:34:26.482Z,100463.53
2022-09-06T14:37:30.094Z,100494.47
2022-09-06T14:40:37.877Z,100466.53
2022-09-06T14:43:44.843Z,100468.91
2022-09-06T14:46:53.304Z,100491.25
2022-09-06T14:49:55.570Z,100480.94
2022-09-06T14:52:58.253Z,100491.34
2022-09-06T14:56:04.477Z,100489.22
2022-09-06T14:59:08.034Z,100483.56
2022-09-06T15:02:10.231Z,100486.91
2022-09-06T15:05:12.704Z,100491.75
2022-09-06T15:08:14.999Z,100491.06
2022-09-06T15:11:36.981Z,100491.47
2022-09-06T15:14:41.048Z,100474.63
2022-09-06T15:17:45.356Z,100466.28
2022-09-06T15:20:50.924Z,100490.31
2022-09-06T15:23:53.977Z,100471.59
2022-09-06T15:26:56.699Z,100478.25
2022-09-06T15:29:59.281Z,100475.28
2022-09-06T15:33:01.510Z,100494.47
2022-09-06T15:36:09.586Z,100479.44
2022-09-06T15:39:13.131Z,100480.84
2022-09-06T15:42:15.668Z,100501.16
2022-09-06T15:45:17.932Z,100479.38
2022-09-06T15:48:23.578Z,100495.16
2022-09-06T15:51:26.004Z,100482.72
2022-09-06T15:54:47.947Z,100487.31
2022-09-06T15:57:50.235Z,100486.72
2022-09-06T16:01:22.562Z,100481.69
2022-09-06T16:04:25.258Z,100496.22
2022-09-06T16:07:27.566Z,100500.31
2022-09-06T16:10:30.910Z,100506.81
2022-09-06T16:13:34.719Z,100495.75
2022-09-06T16:16:37.506Z,100530.19
2022-09-06T16:19:40.261Z,100539.84
2022-09-06T16:22:42.881Z,100537.38
2022-09-06T16:25:52.158Z,100541.50
2022-09-06T16:28:54.970Z,100539.50
2022-09-06T16:31:59.892Z,100545.59
2022-09-06T16:35:05.882Z,100526.78
2022-09-06T16:38:09.473Z,100516.03
2022-09-06T16:41:19.276Z,100540.09
2022-09-06T16:44:21.564Z,100539.34
2022-09-06T16:47:24.331Z,100519.41
2022-09-06T16:50:27.887Z,100521.06
2022-09-06T16:53:41.997Z,100509.97
2022-09-06T16:56:45.734Z,100509.97
2022-09-06T16:59:49.153Z,100517.66
2022-09-06T17:02:51.808Z,100508.91
2022-09-06T17:05:54.492Z,100516.59
2022-09-06T17:09:00.703Z,100499.88
2022-09-06T17:12:04.679Z,100507.84
2022-09-06T17:15:07.304Z,100500.78
2022-09-06T17:18:09.964Z,100534.03
2022-09-06T17:21:12.953Z,100520.56
2022-09-06T17:24:15.580Z,100529.38
2022-09-06T17:27:19.447Z,100531.47
2022-09-06T17:30:21.988Z,100537.00
2022-09-06T17:33:26.309Z,100537.00
2022-09-06T17:36:31.157Z,100546.25
2022-09-06T17:39:33.579Z,100549.94
2022-09-06T17:42:37.148Z,100555.16
2022-09-06T17:45:42.666Z,100537.97
2022-09-06T17:48:45.461Z,100548.38
2022-09-06T17:51:49.169Z,100538.03
2022-09-06T17:54:52.059Z,100555.63
2022-09-06T17:57:54.723Z,100564.41
2022-09-06T18:00:57.438Z,100566.03
2022-09-06T18:04:00.086Z,100535.22
2022-09-06T18:07:02.567Z,100550.81
2022-09-06T18:10:06.953Z,100525.19
2022-09-06T18:13:11.507Z,100533.22
2022-09-06T18:16:14.804Z,100546.38
2022-09-06T18:19:18.980Z,100546.00
2022-09-06T18:22:22.144Z,100519.66
2022-09-06T18:25:24.656Z,100539.69
2022-09-06T18:28:31.572Z,100560.13
2022-09-06T18:31:34.399Z,100561.34
2022-09-06T18:34:36.995Z,100549.00
2022-09-06T18:37:39.234Z,100544.66
2022-09-06T18:40:56.988Z,100565.50
2022-09-06T18:44:00.708Z,100568.75
2022-09-06T18:47:06.592Z,100545.50
2022-09-06T18:50:09.837Z,100544.69
2022-09-06T18:53:12.420Z,100560.34
2022-09-06T18:56:15.654Z,100557.53
2022-09-06T18:59:18.264Z,100542.31
2022-09-06T19:02:23.587Z,100558.34
2022-09-06T19:05:26.444Z,100568.78
2022-09-06T19:08:28.814Z,100568.00
2022-09-06T19:11:31.490Z,100552.44
2022-09-06T19:14:33.823Z,100568.03
2022-09-06T19:17:36.385Z,100543.62
2022-09-06T19:20:38.697Z,100564.84
2022-09-06T19:23:44.224Z,100564.84
2022-09-06T19:26:46.958Z,100537.25
2022-09-06T19:29:50.037Z,100541.66
2022-09-06T19:32:52.305Z,100544.47
2022-09-06T19:36:10.951Z,100542.47
2022-09-06T19:39:16.418Z,100544.47
2022-09-06T19:42:19.034Z,100563.28
2022-09-06T19:45:21.560Z,100544.91
2022-09-06T19:48:24.186Z,100565.69
2022-09-06T19:51:26.681Z,100552.09
2022-09-06T19:54:30.176Z,100545.69
2022-09-06T19:57:32.500Z,100528.44
2022-09-06T20:00:40.320Z,100526.44
2022-09-06T20:03:43.643Z,100538.06
2022-09-06T20:06:46.073Z,100527.28
2022-09-06T20:09:52.412Z,100532.06
2022-09-06T20:12:54.962Z,100536.88
2022-09-06T20:15:57.729Z,100530.47
2022-09-06T20:19:00.571Z,100514.47
2022-09-06T20:22:03.437Z,100532.88
2022-09-06T20:25:06.334Z,100535.69
2022-09-06T20:28:08.867Z,100526.47
2022-09-06T20:31:16.751Z,100541.69
2022-09-06T20:34:19.465Z,100541.69
2022-09-06T20:37:21.780Z,100530.84
2022-09-06T20:40:24.529Z,100524.87
2022-09-06T20:43:26.790Z,100542.47
2022-09-06T20:46:32.270Z,100517.66
2022-09-06T20:49:34.690Z,100534.47
2022-09-06T20:52:40.439Z,100519.25
2022-09-06T20:55:42.743Z,100538.47
2022-09-06T20:58:50.795Z,100555.28
2022-09-06T21:01:53.563Z,100525.66
2022-09-06T21:04:56.151Z,100527.25
2022-09-06T21:07:58.393Z,100548.06
2022-09-06T21:11:01.740Z,100518.47
2022-09-06T21:14:05.261Z,100534.84
2022-09-06T21:17:09.029Z,100518.47
2022-09-06T21:20:11.778Z,100520.88
2022-09-06T21:23:14.272Z,100513.66
2022-09-06T21:26:17.318Z,100531.28
2022-09-06T21:29:19.897Z,100525.66
2022-09-06T21:32:22.140Z,100507.25
2022-09-06T21:35:24.716Z,100514.44
2022-09-06T21:38:27.615Z,100505.66
2022-09-06T21:41:31.268Z,100502.44
2022-09-06T21:44:33.542Z,100529.66
2022-09-06T21:47:36.124Z,100510.44
2022-09-06T21:50:38.337Z,100498.47
2022-09-06T21:53:42.533Z,100516.88
2022-09-06T21:56:44.776Z,100512.84
2022-09-06T21:59:47.295Z,100499.25
2022-09-06T22:02:49.771Z,100504.84
2022-09-06T22:05:52.419Z,100496.84
2022-09-06T22:08:55.644Z,100500.00
2022-09-06T22:11:58.128Z,100498.37
2022-09-06T22:15:00.368Z,100501.56
2022-09-06T22:18:03.225Z,100522.38
2022-09-06T22:21:12.355Z,100505.56
2022-09-06T22:24:16.070Z,100518.75
2022-09-06T22:27:18.412Z,100519.19
2022-09-06T22:30:25.491Z,100516.75
2022-09-06T22:33:28.387Z,100498.34
2022-09-06T22:36:31.200Z,100514.31
2022-09-06T22:39:33.516Z,100495.50
2022-09-06T22:42:36.218Z,100498.72
2022-09-06T22:45:38.955Z,100515.53
2022-09-06T22:48:41.483Z,100519.91
2022-09-06T22:51:43.867Z,100504.28
2022-09-06T22:54:46.441Z,100515.09
2022-09-06T22:57:48.672Z,100506.28
2022-09-06T23:00:51.433Z,100505.91
2022-09-06T23:03:53.879Z,100517.44
2022-09-06T23:06:56.392Z,100488.66
2022-09-06T23:09:58.651Z,100501.84
2022-09-06T23:13:01.185Z,100494.22
2022-09-06T23:16:08.984Z,100491.00
2022-09-06T23:19:11.645Z,100490.19
2022-09-06T23:22:13.827Z,100507.78
2022-09-06T23:25:16.502Z,100483.72
2022-09-06T23:28:18.712Z,100484.50
2022-09-06T23:31:21.238Z,100503.75
2022-09-06T23:34:23.729Z,100488.44
2022-09-06T23:37:26.273Z,100502.03
2022-09-06T23:40:28.478Z,100485.22
2022-09-06T23:43:31.144Z,100476.00
2022-09-06T23:46:33.699Z,100495.63
2022-09-06T23:49:36.695Z,100474.78
2022-09-06T23:52:38.901Z,100494.78
2022-09-06T23:55:42.106Z,100476.72
2022-09-06T23:58:44.365Z,100470.75
